createdAt,value
2024-02-07T00:14:10.989Z,99322.03
2024-02-07T00:29:12.831Z,99302.50
2024-02-07T00:44:14.981Z,99283.81
2024-02-07T00:59:16.946Z,99280.09
2024-02-07T01:14:19.012Z,99270.34
2024-02-07T01:29:21.001Z,99279.63
2024-02-07T01:44:22.932Z,99275.72
2024-02-07T01:59:26.345Z,99264.06
2024-02-07T02:14:29.066Z,99247.63
2024-02-07T02:29:38.104Z,99226.31
2024-02-07T02:44:40.151Z,99199.72
2024-02-07T02:59:42.418Z,99180.50
2024-02-07T03:14:44.413Z,99166.66
2024-02-07T03:29:46.483Z,99159.84
2024-02-07T03:44:58.479Z,99154.41
2024-02-07T04:00:00.343Z,99155.88
2024-02-07T04:15:20.474Z,99154.25
2024-02-07T04:30:40.608Z,99115.53
2024-02-07T04:46:01.265Z,99094.50
2024-02-07T05:01:22.265Z,99057.13
2024-02-07T05:16:24.286Z,99037.25
2024-02-07T05:31:26.155Z,99033.66
2024-02-07T05:46:28.577Z,99033.16
2024-02-07T06:01:30.749Z,99024.72
2024-02-07T06:16:33.778Z,99033.84
2024-02-07T06:31:37.255Z,99025.25
2024-02-07T06:46:43.880Z,99024.50
2024-02-07T07:01:46.075Z,98992.41
2024-02-07T07:16:47.989Z,98980.94
2024-02-07T07:31:50.130Z,98965.53
2024-02-07T07:46:52.730Z,98967.97
2024-02-07T08:01:59.437Z,98946.00
2024-02-07T08:17:01.430Z,98948.78
2024-02-07T08:32:03.734Z,98962.31
2024-02-07T08:47:06.098Z,98956.91
2024-02-07T09:02:08.895Z,98946.53
2024-02-07T09:17:10.793Z,98921.34
2024-02-07T09:32:13.733Z,98935.63
2024-02-07T09:47:18.555Z,98921.03
2024-02-07T10:02:22.426Z,98919.59
2024-02-07T10:17:25.143Z,98893.16
2024-02-07T10:32:28.815Z,98858.97
2024-02-07T10:47:30.831Z,98835.84
2024-02-07T11:02:34.223Z,98851.19
2024-02-07T11:17:36.336Z,98837.53
2024-02-07T11:32:42.239Z,98824.91
2024-02-07T11:47:44.820Z,98792.81
2024-02-07T12:02:51.302Z,98787.88
2024-02-07T12:17:53.169Z,98769.69
2024-02-07T12:32:55.030Z,98739.81
2024-02-07T12:47:57.357Z,98713.75
2024-02-07T13:02:59.416Z,98709.25
2024-02-07T13:18:01.420Z,98703.13
2024-02-07T13:33:03.623Z,98693.47
2024-02-07T13:48:06.031Z,98690.28
2024-02-07T14:03:08.394Z,98669.75
2024-02-07T14:18:10.417Z,98653.84
2024-02-07T14:33:13.421Z,98645.75
2024-02-07T14:48:15.776Z,98639.81
2024-02-07T15:03:17.799Z,98623.06
2024-02-07T15:18:19.861Z,98618.75
2024-02-07T15:33:23.644Z,98592.00
2024-02-07T15:48:26.057Z,98600.38
2024-02-07T16:03:28.370Z,98590.94
2024-02-07T16:18:32.107Z,98587.41
2024-02-07T16:33:35.786Z,98622.25
2024-02-07T16:48:38.074Z,98637.66
2024-02-07T17:03:40.141Z,98645.97
2024-02-07T17:18:42.217Z,98635.44
2024-02-07T17:33:44.686Z,98622.16
2024-02-07T17:48:46.689Z,98616.97
2024-02-07T18:03:49.115Z,98601.72
2024-02-07T18:18:51.551Z,98573.28
2024-02-07T18:33:53.684Z,98588.09
2024-02-07T18:48:56.712Z,98576.59
2024-02-07T19:03:59.316Z,98568.78
2024-02-07T19:19:04.260Z,98560.69
2024-02-07T19:34:06.585Z,98569.03
2024-02-07T19:49:08.277Z,98566.53
2024-02-07T20:04:10.313Z,98570.53
2024-02-07T20:19:12.952Z,98565.16
2024-02-07T20:34:15.282Z,98574.00
2024-02-07T20:49:17.318Z,98574.78
2024-02-07T21:04:19.676Z,98584.81
2024-02-07T21:19:21.358Z,98575.38
2024-02-07T21:34:23.728Z,98571.59
2024-02-07T21:49:28.000Z,98574.81
2024-02-07T22:04:30.313Z,98573.66
2024-02-07T22:19:32.616Z,98564.56
2024-02-07T22:34:35.081Z,98559.22
2024-02-07T22:49:37.660Z,98571.28
2024-02-07T23:04:40.216Z,98571.72
2024-02-07T23:19:46.712Z,98583.56
2024-02-07T23:34:54.564Z,98596.88
2024-02-07T23:49:56.525Z,98591.00
